SR-SS   ¦   EYVI 0157-1834UTC    ¦   EYKA 0202-1838UTC    ¦   EYSA 0200-1847UTC    ¦   EYPA 0205-1858UTC


***********************WWW.PILOTUMOKYKLA.LT**********************
****************************WX START*****************************

EYVI - Vilnius International (ATIS: 125.8)
(VFR) EYVI 230850Z 22004KT 180V270 9999 SCT025TCU 19/11 Q1021 NOSIG
(MVFR) EYVI 230820Z 26005KT 220V310 9999 BKN021 17/12 Q1021 NOSIG
(MVFR) EYVI 230750Z 22003KT 120V260 9999 BKN019 17/12 Q1020 NOSIG

Couldn't resolve host 'weather.noaa.gov'=============================================================

EYKA - Kaunas International (ATIS: 129.05)
(VFR) EYKA 230850Z 35007KT 310V030 9999 FEW020 SCT025 17/11 Q1021
(VFR) EYKA 230820Z 34007KT 300V030 9999 FEW019 SCT023 BKN046 17/12 Q1021
(VFR) EYKA 230750Z 36006KT 330V060 9999 FEW017 BKN033 16/12 Q1021

Couldn't resolve host 'weather.noaa.gov'=============================================================

EYSA - Siauliai International (Military) (ATIS: 120.75)
(VFR) EYSA 230850Z 30006KT 9999 FEW029 SCT077 14/13 Q1022 BLU NOSIG
(VFR) EYSA 230820Z 33004KT 300V360 9999 -SHRA FEW026CB BKN083 13/13 Q1022 BLU TEMPO SCT008 BKN012 GRN
(MVFR) EYSA 230750Z 36004KT 8000 -SHRA FEW004 SCT025CB OVC070 13/12 Q1022 BLU TEMPO SCT008 BKN012 GRN

Couldn't resolve host 'weather.noaa.gov'=============================================================

EYPA - Palanga International (ATIS: 127.8)
(VFR) EYPA 230850Z VRB03KT CAVOK 15/11 Q1023
(VFR) EYPA 230820Z VRB03KT CAVOK 14/11 Q1023
(VFR) EYPA 230750Z 27003KT 210V340 CAVOK 14/10 Q1023

Couldn't resolve host 'weather.noaa.gov'=============================================================

UMMG - Hrodna International (ATIS: 135.02)
(MVFR) UMMG 230900Z 29003MPS 9999 BKN030 BKN066 19/12 Q1021 R17/CLRD// NOSIG
(MVFR) UMMG 230800Z 29003MPS 9999 BKN020 BKN066 18/13 Q1020 R17/CLRD// NOSIG

Couldn't resolve host 'weather.noaa.gov'=============================================================

NOTE: WX Report includes all metar's issued in last 1:30h and latest TAF's.

******************************WX END*********************************
***********************************************************************